sensor_id;sensor_type;location;lat;lon;timestamp;P1;durP1;ratioP1;P2;durP2;ratioP2
38053;SDS011;23859;50.672;7.164;2023-06-22T00:01:42;8.98;;;6.78;;
38053;SDS011;23859;50.672;7.164;2023-06-22T00:04:08;8.70;;;6.53;;
38053;SDS011;23859;50.672;7.164;2023-06-22T00:06:34;7.93;;;6.70;;
38053;SDS011;23859;50.672;7.164;2023-06-22T00:09:00;11.57;;;7.72;;
38053;SDS011;23859;50.672;7.164;2023-06-22T00:11:26;9.27;;;7.35;;
38053;SDS011;23859;50.672;7.164;2023-06-22T00:13:52;11.13;;;8.07;;
38053;SDS011;23859;50.672;7.164;2023-06-22T00:16:18;9.98;;;7.65;;
38053;SDS011;23859;50.672;7.164;2023-06-22T00:18:45;12.70;;;7.60;;
38053;SDS011;23859;50.672;7.164;2023-06-22T00:21:12;13.60;;;7.93;;
38053;SDS011;23859;50.672;7.164;2023-06-22T00:23:38;11.07;;;7.43;;
38053;SDS011;23859;50.672;7.164;2023-06-22T00:26:04;12.23;;;7.75;;
38053;SDS011;23859;50.672;7.164;2023-06-22T00:28:30;11.77;;;7.82;;
38053;SDS011;23859;50.672;7.164;2023-06-22T00:30:56;11.07;;;7.40;;
38053;SDS011;23859;50.672;7.164;2023-06-22T00:33:22;11.15;;;7.78;;
38053;SDS011;23859;50.672;7.164;2023-06-22T00:35:49;9.48;;;7.60;;
38053;SDS011;23859;50.672;7.164;2023-06-22T00:38:17;11.50;;;7.93;;
38053;SDS011;23859;50.672;7.164;2023-06-22T00:40:43;11.88;;;8.32;;
38053;SDS011;23859;50.672;7.164;2023-06-22T00:43:10;8.82;;;7.60;;
38053;SDS011;23859;50.672;7.164;2023-06-22T00:45:36;11.07;;;7.22;;
38053;SDS011;23859;50.672;7.164;2023-06-22T00:48:02;9.70;;;7.35;;
38053;SDS011;23859;50.672;7.164;2023-06-22T00:50:30;9.93;;;7.45;;
38053;SDS011;23859;50.672;7.164;2023-06-22T00:52:59;10.48;;;7.88;;
38053;SDS011;23859;50.672;7.164;2023-06-22T00:55:29;11.48;;;7.68;;
38053;SDS011;23859;50.672;7.164;2023-06-22T00:57:56;11.15;;;7.50;;
38053;SDS011;23859;50.672;7.164;2023-06-22T01:00:25;9.95;;;7.50;;
38053;SDS011;23859;50.672;7.164;2023-06-22T01:02:52;10.05;;;7.60;;
38053;SDS011;23859;50.672;7.164;2023-06-22T01:05:18;11.70;;;8.07;;
38053;SDS011;23859;50.672;7.164;2023-06-22T01:10:36;10.57;;;7.97;;
38053;SDS011;23859;50.672;7.164;2023-06-22T01:16:14;12.07;;;7.65;;
38053;SDS011;23859;50.672;7.164;2023-06-22T01:18:45;9.38;;;7.85;;
38053;SDS011;23859;50.672;7.164;2023-06-22T01:21:16;9.48;;;7.18;;
38053;SDS011;23859;50.672;7.164;2023-06-22T01:23:51;10.63;;;8.07;;
38053;SDS011;23859;50.672;7.164;2023-06-22T01:29:03;9.05;;;7.63;;
38053;SDS011;23859;50.672;7.164;2023-06-22T01:31:30;10.98;;;7.47;;
38053;SDS011;23859;50.672;7.164;2023-06-22T01:34:00;16.60;;;7.80;;
38053;SDS011;23859;50.672;7.164;2023-06-22T01:36:28;12.32;;;8.20;;
38053;SDS011;23859;50.672;7.164;2023-06-22T01:38:56;12.25;;;7.40;;
38053;SDS011;23859;50.672;7.164;2023-06-22T01:41:26;10.82;;;7.57;;
38053;SDS011;23859;50.672;7.164;2023-06-22T01:43:54;10.75;;;8.38;;
38053;SDS011;23859;50.672;7.164;2023-06-22T01:46:21;10.20;;;7.63;;
38053;SDS011;23859;50.672;7.164;2023-06-22T01:48:48;9.98;;;7.22;;
38053;SDS011;23859;50.672;7.164;2023-06-22T01:51:15;12.07;;;7.78;;
38053;SDS011;23859;50.672;7.164;2023-06-22T01:53:41;12.23;;;7.93;;
38053;SDS011;23859;50.672;7.164;2023-06-22T01:56:08;11.10;;;7.28;;
38053;SDS011;23859;50.672;7.164;2023-06-22T01:58:34;10.48;;;7.50;;
38053;SDS011;23859;50.672;7.164;2023-06-22T02:01:10;10.57;;;7.95;;
38053;SDS011;23859;50.672;7.164;2023-06-22T02:03:42;12.73;;;8.65;;
38053;SDS011;23859;50.672;7.164;2023-06-22T02:06:19;12.50;;;7.80;;
38053;SDS011;23859;50.672;7.164;2023-06-22T02:08:57;10.02;;;7.78;;
38053;SDS011;23859;50.672;7.164;2023-06-22T02:11:26;11.52;;;8.00;;
38053;SDS011;23859;50.672;7.164;2023-06-22T02:13:55;8.40;;;7.00;;
38053;SDS011;23859;50.672;7.164;2023-06-22T02:16:22;10.10;;;7.20;;
38053;SDS011;23859;50.672;7.164;2023-06-22T02:18:49;9.18;;;7.25;;
38053;SDS011;23859;50.672;7.164;2023-06-22T02:21:19;9.15;;;7.38;;
38053;SDS011;23859;50.672;7.164;2023-06-22T02:23:46;10.18;;;7.30;;
38053;SDS011;23859;50.672;7.164;2023-06-22T02:26:12;9.77;;;7.55;;
38053;SDS011;23859;50.672;7.164;2023-06-22T02:28:38;14.68;;;7.70;;
38053;SDS011;23859;50.672;7.164;2023-06-22T02:31:04;12.65;;;7.57;;
38053;SDS011;23859;50.672;7.164;2023-06-22T02:33:31;11.00;;;7.90;;
38053;SDS011;23859;50.672;7.164;2023-06-22T02:35:57;13.20;;;8.15;;
38053;SDS011;23859;50.672;7.164;2023-06-22T02:38:23;12.30;;;8.38;;
38053;SDS011;23859;50.672;7.164;2023-06-22T02:40:49;16.38;;;7.95;;
38053;SDS011;23859;50.672;7.164;2023-06-22T02:43:15;10.82;;;8.38;;
38053;SDS011;23859;50.672;7.164;2023-06-22T02:45:42;11.48;;;7.88;;
38053;SDS011;23859;50.672;7.164;2023-06-22T02:48:08;11.60;;;7.43;;
38053;SDS011;23859;50.672;7.164;2023-06-22T02:50:34;9.50;;;7.85;;
38053;SDS011;23859;50.672;7.164;2023-06-22T02:53:01;8.27;;;6.72;;
38053;SDS011;23859;50.672;7.164;2023-06-22T02:55:27;11.27;;;7.43;;
38053;SDS011;23859;50.672;7.164;2023-06-22T02:57:53;9.23;;;7.28;;
38053;SDS011;23859;50.672;7.164;2023-06-22T03:00:19;9.93;;;7.57;;
38053;SDS011;23859;50.672;7.164;2023-06-22T03:02:47;9.30;;;7.30;;
38053;SDS011;23859;50.672;7.164;2023-06-22T03:05:14;10.80;;;8.20;;
38053;SDS011;23859;50.672;7.164;2023-06-22T03:07:46;14.98;;;7.72;;
38053;SDS011;23859;50.672;7.164;2023-06-22T03:10:12;10.23;;;6.97;;
38053;SDS011;23859;50.672;7.164;2023-06-22T03:12:39;11.68;;;7.15;;
38053;SDS011;23859;50.672;7.164;2023-06-22T03:15:06;10.35;;;6.95;;
38053;SDS011;23859;50.672;7.164;2023-06-22T03:17:34;16.65;;;7.43;;
38053;SDS011;23859;50.672;7.164;2023-06-22T03:20:01;11.02;;;6.95;;
38053;SDS011;23859;50.672;7.164;2023-06-22T03:22:35;9.88;;;7.63;;
38053;SDS011;23859;50.672;7.164;2023-06-22T03:25:05;10.70;;;7.65;;
38053;SDS011;23859;50.672;7.164;2023-06-22T03:27:41;14.43;;;7.57;;
38053;SDS011;23859;50.672;7.164;2023-06-22T03:30:09;11.00;;;7.60;;
38053;SDS011;23859;50.672;7.164;2023-06-22T03:32:36;12.25;;;8.90;;
38053;SDS011;23859;50.672;7.164;2023-06-22T03:35:02;8.98;;;7.00;;
38053;SDS011;23859;50.672;7.164;2023-06-22T03:37:29;10.38;;;7.32;;
38053;SDS011;23859;50.672;7.164;2023-06-22T03:39:55;11.98;;;7.75;;
38053;SDS011;23859;50.672;7.164;2023-06-22T03:42:21;11.18;;;7.75;;
38053;SDS011;23859;50.672;7.164;2023-06-22T03:44:47;9.40;;;7.35;;
38053;SDS011;23859;50.672;7.164;2023-06-22T03:47:13;10.50;;;7.75;;
38053;SDS011;23859;50.672;7.164;2023-06-22T03:49:39;12.48;;;7.85;;
38053;SDS011;23859;50.672;7.164;2023-06-22T03:52:05;13.40;;;7.55;;
38053;SDS011;23859;50.672;7.164;2023-06-22T03:54:32;12.02;;;7.93;;
38053;SDS011;23859;50.672;7.164;2023-06-22T03:56:58;10.07;;;7.18;;
38053;SDS011;23859;50.672;7.164;2023-06-22T03:59:24;12.48;;;7.53;;
38053;SDS011;23859;50.672;7.164;2023-06-22T04:01:50;11.27;;;8.02;;
38053;SDS011;23859;50.672;7.164;2023-06-22T04:04:19;9.45;;;7.28;;
38053;SDS011;23859;50.672;7.164;2023-06-22T04:06:45;9.68;;;6.53;;
38053;SDS011;23859;50.672;7.164;2023-06-22T04:09:11;11.88;;;7.50;;
38053;SDS011;23859;50.672;7.164;2023-06-22T04:11:37;12.93;;;7.22;;
38053;SDS011;23859;50.672;7.164;2023-06-22T04:14:03;7.88;;;6.35;;
38053;SDS011;23859;50.672;7.164;2023-06-22T04:16:30;10.77;;;6.75;;
38053;SDS011;23859;50.672;7.164;2023-06-22T04:18:56;10.70;;;7.72;;
38053;SDS011;23859;50.672;7.164;2023-06-22T04:21:22;8.85;;;7.32;;
38053;SDS011;23859;50.672;7.164;2023-06-22T04:23:48;13.55;;;7.30;;
38053;SDS011;23859;50.672;7.164;2023-06-22T04:26:14;9.82;;;6.70;;
38053;SDS011;23859;50.672;7.164;2023-06-22T04:28:40;13.75;;;6.47;;
38053;SDS011;23859;50.672;7.164;2023-06-22T04:31:06;10.68;;;6.85;;
38053;SDS011;23859;50.672;7.164;2023-06-22T04:33:32;13.88;;;7.45;;
38053;SDS011;23859;50.672;7.164;2023-06-22T04:35:58;10.55;;;7.30;;
38053;SDS011;23859;50.672;7.164;2023-06-22T04:38:28;10.43;;;6.53;;
38053;SDS011;23859;50.672;7.164;2023-06-22T04:40:58;10.68;;;6.63;;
38053;SDS011;23859;50.672;7.164;2023-06-22T04:43:26;10.43;;;7.20;;
38053;SDS011;23859;50.672;7.164;2023-06-22T04:45:55;10.38;;;6.95;;
38053;SDS011;23859;50.672;7.164;2023-06-22T04:48:28;12.52;;;6.95;;
38053;SDS011;23859;50.672;7.164;2023-06-22T04:50:58;11.68;;;6.55;;
38053;SDS011;23859;50.672;7.164;2023-06-22T04:53:30;11.63;;;7.32;;
38053;SDS011;23859;50.672;7.164;2023-06-22T04:55:56;10.98;;;6.93;;
38053;SDS011;23859;50.672;7.164;2023-06-22T04:58:22;10.07;;;7.07;;
38053;SDS011;23859;50.672;7.164;2023-06-22T05:00:52;10.13;;;7.03;;
38053;SDS011;23859;50.672;7.164;2023-06-22T05:03:18;12.35;;;7.25;;
38053;SDS011;23859;50.672;7.164;2023-06-22T05:05:44;9.00;;;6.72;;
38053;SDS011;23859;50.672;7.164;2023-06-22T05:08:10;10.20;;;7.80;;
38053;SDS011;23859;50.672;7.164;2023-06-22T05:10:36;12.77;;;7.97;;
38053;SDS011;23859;50.672;7.164;2023-06-22T05:13:02;12.25;;;7.93;;
38053;SDS011;23859;50.672;7.164;2023-06-22T05:15:28;9.77;;;7.68;;
38053;SDS011;23859;50.672;7.164;2023-06-22T05:17:58;12.02;;;8.43;;
38053;SDS011;23859;50.672;7.164;2023-06-22T05:20:24;9.77;;;8.45;;
38053;SDS011;23859;50.672;7.164;2023-06-22T05:22:50;12.10;;;7.80;;
38053;SDS011;23859;50.672;7.164;2023-06-22T05:25:16;10.55;;;8.07;;
38053;SDS011;23859;50.672;7.164;2023-06-22T05:27:43;13.68;;;8.20;;
38053;SDS011;23859;50.672;7.164;2023-06-22T05:30:09;10.18;;;8.15;;
38053;SDS011;23859;50.672;7.164;2023-06-22T05:32:36;11.57;;;8.32;;
38053;SDS011;23859;50.672;7.164;2023-06-22T05:35:03;10.32;;;8.52;;
38053;SDS011;23859;50.672;7.164;2023-06-22T05:37:30;11.75;;;8.45;;
38053;SDS011;23859;50.672;7.164;2023-06-22T05:39:56;9.48;;;7.85;;
38053;SDS011;23859;50.672;7.164;2023-06-22T05:42:22;15.07;;;7.70;;
38053;SDS011;23859;50.672;7.164;2023-06-22T05:44:50;10.52;;;7.90;;
38053;SDS011;23859;50.672;7.164;2023-06-22T05:47:18;11.57;;;7.38;;
38053;SDS011;23859;50.672;7.164;2023-06-22T05:49:44;10.15;;;7.30;;
38053;SDS011;23859;50.672;7.164;2023-06-22T05:52:10;10.05;;;7.50;;
38053;SDS011;23859;50.672;7.164;2023-06-22T05:54:36;8.90;;;7.00;;
38053;SDS011;23859;50.672;7.164;2023-06-22T05:57:04;11.18;;;7.63;;
38053;SDS011;23859;50.672;7.164;2023-06-22T05:59:30;10.02;;;6.78;;
38053;SDS011;23859;50.672;7.164;2023-06-22T06:01:56;9.88;;;7.47;;
38053;SDS011;23859;50.672;7.164;2023-06-22T06:04:22;9.40;;;6.68;;
38053;SDS011;23859;50.672;7.164;2023-06-22T06:06:48;13.13;;;7.78;;
38053;SDS011;23859;50.672;7.164;2023-06-22T06:09:14;11.75;;;7.80;;
38053;SDS011;23859;50.672;7.164;2023-06-22T06:11:40;11.82;;;6.90;;
38053;SDS011;23859;50.672;7.164;2023-06-22T06:14:07;13.32;;;7.53;;
38053;SDS011;23859;50.672;7.164;2023-06-22T06:16:33;10.10;;;7.85;;
38053;SDS011;23859;50.672;7.164;2023-06-22T06:18:59;12.45;;;7.25;;
38053;SDS011;23859;50.672;7.164;2023-06-22T06:21:25;10.68;;;8.27;;
38053;SDS011;23859;50.672;7.164;2023-06-22T06:23:51;13.00;;;7.50;;
38053;SDS011;23859;50.672;7.164;2023-06-22T06:26:18;13.55;;;7.15;;
38053;SDS011;23859;50.672;7.164;2023-06-22T06:28:51;11.18;;;7.82;;
38053;SDS011;23859;50.672;7.164;2023-06-22T06:31:17;10.60;;;6.75;;
38053;SDS011;23859;50.672;7.164;2023-06-22T06:33:43;13.13;;;7.60;;
38053;SDS011;23859;50.672;7.164;2023-06-22T06:36:09;9.45;;;7.75;;
38053;SDS011;23859;50.672;7.164;2023-06-22T06:38:35;11.90;;;8.70;;
38053;SDS011;23859;50.672;7.164;2023-06-22T06:41:01;11.88;;;7.32;;
38053;SDS011;23859;50.672;7.164;2023-06-22T06:43:27;12.70;;;8.98;;
38053;SDS011;23859;50.672;7.164;2023-06-22T06:45:53;10.77;;;7.30;;
38053;SDS011;23859;50.672;7.164;2023-06-22T06:48:19;11.48;;;7.60;;
38053;SDS011;23859;50.672;7.164;2023-06-22T06:50:46;11.88;;;8.05;;
38053;SDS011;23859;50.672;7.164;2023-06-22T06:53:12;11.77;;;8.18;;
38053;SDS011;23859;50.672;7.164;2023-06-22T06:55:38;11.52;;;7.88;;
38053;SDS011;23859;50.672;7.164;2023-06-22T06:58:04;12.05;;;8.85;;
38053;SDS011;23859;50.672;7.164;2023-06-22T07:00:32;9.25;;;7.05;;
38053;SDS011;23859;50.672;7.164;2023-06-22T07:02:58;9.63;;;7.80;;
38053;SDS011;23859;50.672;7.164;2023-06-22T07:05:24;11.50;;;8.23;;
38053;SDS011;23859;50.672;7.164;2023-06-22T07:07:50;11.15;;;8.73;;
38053;SDS011;23859;50.672;7.164;2023-06-22T07:10:18;11.98;;;8.68;;
38053;SDS011;23859;50.672;7.164;2023-06-22T07:12:44;13.00;;;8.60;;
38053;SDS011;23859;50.672;7.164;2023-06-22T07:15:10;10.30;;;8.23;;
38053;SDS011;23859;50.672;7.164;2023-06-22T07:17:37;13.55;;;8.70;;
38053;SDS011;23859;50.672;7.164;2023-06-22T07:20:06;10.82;;;8.48;;
38053;SDS011;23859;50.672;7.164;2023-06-22T07:22:36;10.90;;;8.57;;
38053;SDS011;23859;50.672;7.164;2023-06-22T07:25:03;10.82;;;8.60;;
38053;SDS011;23859;50.672;7.164;2023-06-22T07:27:34;11.13;;;7.80;;
38053;SDS011;23859;50.672;7.164;2023-06-22T07:30:02;12.98;;;9.25;;
38053;SDS011;23859;50.672;7.164;2023-06-22T07:32:29;10.32;;;7.88;;
38053;SDS011;23859;50.672;7.164;2023-06-22T07:34:55;13.38;;;8.68;;
38053;SDS011;23859;50.672;7.164;2023-06-22T07:37:21;16.27;;;9.05;;
38053;SDS011;23859;50.672;7.164;2023-06-22T07:39:47;13.13;;;8.93;;
38053;SDS011;23859;50.672;7.164;2023-06-22T07:42:15;16.90;;;9.32;;
38053;SDS011;23859;50.672;7.164;2023-06-22T07:44:43;13.70;;;7.97;;
38053;SDS011;23859;50.672;7.164;2023-06-22T07:47:10;23.05;;;8.68;;
38053;SDS011;23859;50.672;7.164;2023-06-22T07:49:36;11.93;;;8.82;;
38053;SDS011;23859;50.672;7.164;2023-06-22T07:52:02;10.43;;;8.35;;
38053;SDS011;23859;50.672;7.164;2023-06-22T07:54:29;12.07;;;8.70;;
38053;SDS011;23859;50.672;7.164;2023-06-22T07:56:56;13.60;;;9.10;;
38053;SDS011;23859;50.672;7.164;2023-06-22T07:59:22;13.82;;;8.48;;
38053;SDS011;23859;50.672;7.164;2023-06-22T08:01:48;13.82;;;7.45;;
38053;SDS011;23859;50.672;7.164;2023-06-22T08:04:14;10.90;;;8.20;;
38053;SDS011;23859;50.672;7.164;2023-06-22T08:06:40;11.15;;;7.28;;
38053;SDS011;23859;50.672;7.164;2023-06-22T08:09:07;11.50;;;7.18;;
38053;SDS011;23859;50.672;7.164;2023-06-22T08:11:33;11.02;;;7.88;;
38053;SDS011;23859;50.672;7.164;2023-06-22T08:13:59;10.85;;;8.18;;
38053;SDS011;23859;50.672;7.164;2023-06-22T08:16:25;10.75;;;7.80;;
38053;SDS011;23859;50.672;7.164;2023-06-22T08:18:51;9.90;;;7.78;;
38053;SDS011;23859;50.672;7.164;2023-06-22T08:21:17;9.43;;;7.32;;
38053;SDS011;23859;50.672;7.164;2023-06-22T08:23:43;15.15;;;7.88;;
38053;SDS011;23859;50.672;7.164;2023-06-22T08:26:09;11.65;;;7.50;;
38053;SDS011;23859;50.672;7.164;2023-06-22T08:28:35;10.13;;;7.63;;
38053;SDS011;23859;50.672;7.164;2023-06-22T08:31:01;8.43;;;6.97;;
38053;SDS011;23859;50.672;7.164;2023-06-22T08:33:28;12.23;;;7.75;;
38053;SDS011;23859;50.672;7.164;2023-06-22T08:35:55;10.32;;;8.20;;
38053;SDS011;23859;50.672;7.164;2023-06-22T08:38:23;10.18;;;8.73;;
38053;SDS011;23859;50.672;7.164;2023-06-22T08:40:49;10.65;;;7.90;;
38053;SDS011;23859;50.672;7.164;2023-06-22T08:43:15;13.05;;;9.18;;
38053;SDS011;23859;50.672;7.164;2023-06-22T08:45:41;12.68;;;10.52;;
38053;SDS011;23859;50.672;7.164;2023-06-22T08:48:07;11.50;;;9.18;;
38053;SDS011;23859;50.672;7.164;2023-06-22T08:50:33;10.55;;;8.23;;
38053;SDS011;23859;50.672;7.164;2023-06-22T08:52:59;10.98;;;8.60;;
38053;SDS011;23859;50.672;7.164;2023-06-22T08:55:25;12.57;;;8.60;;
38053;SDS011;23859;50.672;7.164;2023-06-22T08:57:51;11.70;;;9.18;;
38053;SDS011;23859;50.672;7.164;2023-06-22T09:00:17;11.35;;;8.55;;
38053;SDS011;23859;50.672;7.164;2023-06-22T09:02:45;13.25;;;9.05;;
38053;SDS011;23859;50.672;7.164;2023-06-22T09:05:12;10.63;;;9.00;;
38053;SDS011;23859;50.672;7.164;2023-06-22T09:07:39;10.88;;;8.15;;
38053;SDS011;23859;50.672;7.164;2023-06-22T09:10:05;10.80;;;9.35;;
38053;SDS011;23859;50.672;7.164;2023-06-22T09:12:32;11.82;;;9.48;;
38053;SDS011;23859;50.672;7.164;2023-06-22T09:14:59;10.63;;;8.75;;
38053;SDS011;23859;50.672;7.164;2023-06-22T09:17:25;8.75;;;7.68;;
38053;SDS011;23859;50.672;7.164;2023-06-22T09:19:52;9.50;;;8.13;;
38053;SDS011;23859;50.672;7.164;2023-06-22T09:22:18;9.45;;;7.80;;
38053;SDS011;23859;50.672;7.164;2023-06-22T09:24:44;11.23;;;8.57;;
38053;SDS011;23859;50.672;7.164;2023-06-22T09:27:10;10.18;;;8.00;;
38053;SDS011;23859;50.672;7.164;2023-06-22T09:29:36;8.63;;;7.22;;
38053;SDS011;23859;50.672;7.164;2023-06-22T09:32:02;13.48;;;8.70;;
38053;SDS011;23859;50.672;7.164;2023-06-22T09:34:28;9.68;;;8.27;;
38053;SDS011;23859;50.672;7.164;2023-06-22T09:36:56;9.65;;;8.50;;
38053;SDS011;23859;50.672;7.164;2023-06-22T09:39:25;10.25;;;7.35;;
38053;SDS011;23859;50.672;7.164;2023-06-22T09:41:51;12.88;;;8.32;;
38053;SDS011;23859;50.672;7.164;2023-06-22T09:44:17;10.38;;;8.25;;
38053;SDS011;23859;50.672;7.164;2023-06-22T09:46:43;9.70;;;7.65;;
38053;SDS011;23859;50.672;7.164;2023-06-22T09:49:10;11.18;;;7.93;;
38053;SDS011;23859;50.672;7.164;2023-06-22T09:51:36;10.82;;;8.18;;
38053;SDS011;23859;50.672;7.164;2023-06-22T09:54:02;10.80;;;7.93;;
38053;SDS011;23859;50.672;7.164;2023-06-22T09:56:28;12.93;;;8.55;;
38053;SDS011;23859;50.672;7.164;2023-06-22T09:58:55;10.00;;;8.73;;
38053;SDS011;23859;50.672;7.164;2023-06-22T10:01:21;15.50;;;8.48;;
38053;SDS011;23859;50.672;7.164;2023-06-22T10:03:47;10.82;;;8.93;;
38053;SDS011;23859;50.672;7.164;2023-06-22T10:06:16;11.25;;;8.73;;
38053;SDS011;23859;50.672;7.164;2023-06-22T10:08:43;10.40;;;8.10;;
38053;SDS011;23859;50.672;7.164;2023-06-22T10:11:09;10.60;;;9.15;;
38053;SDS011;23859;50.672;7.164;2023-06-22T10:13:35;11.38;;;8.95;;
38053;SDS011;23859;50.672;7.164;2023-06-22T10:16:01;11.85;;;8.77;;
38053;SDS011;23859;50.672;7.164;2023-06-22T10:18:27;9.57;;;8.55;;
38053;SDS011;23859;50.672;7.164;2023-06-22T10:20:53;11.35;;;9.15;;
38053;SDS011;23859;50.672;7.164;2023-06-22T10:23:19;12.00;;;9.32;;
38053;SDS011;23859;50.672;7.164;2023-06-22T10:25:46;11.77;;;9.52;;
38053;SDS011;23859;50.672;7.164;2023-06-22T10:28:12;13.35;;;9.48;;
38053;SDS011;23859;50.672;7.164;2023-06-22T10:30:39;11.07;;;9.25;;
38053;SDS011;23859;50.672;7.164;2023-06-22T10:33:08;12.80;;;10.57;;
38053;SDS011;23859;50.672;7.164;2023-06-22T10:35:36;11.77;;;9.77;;
38053;SDS011;23859;50.672;7.164;2023-06-22T10:38:03;13.93;;;11.00;;
38053;SDS011;23859;50.672;7.164;2023-06-22T10:40:29;15.52;;;10.68;;
38053;SDS011;23859;50.672;7.164;2023-06-22T10:42:55;17.83;;;12.23;;
38053;SDS011;23859;50.672;7.164;2023-06-22T10:45:22;16.08;;;12.95;;
38053;SDS011;23859;50.672;7.164;2023-06-22T10:47:48;20.38;;;13.57;;
38053;SDS011;23859;50.672;7.164;2023-06-22T10:50:14;21.27;;;14.00;;
38053;SDS011;23859;50.672;7.164;2023-06-22T10:52:40;34.30;;;15.52;;
38053;SDS011;23859;50.672;7.164;2023-06-22T10:55:07;24.63;;;16.38;;
38053;SDS011;23859;50.672;7.164;2023-06-22T10:57:34;28.77;;;17.23;;
38053;SDS011;23859;50.672;7.164;2023-06-22T11:00:00;25.83;;;17.35;;
38053;SDS011;23859;50.672;7.164;2023-06-22T11:02:26;34.05;;;20.75;;
38053;SDS011;23859;50.672;7.164;2023-06-22T11:04:53;35.38;;;20.35;;
38053;SDS011;23859;50.672;7.164;2023-06-22T11:07:19;31.80;;;20.65;;
38053;SDS011;23859;50.672;7.164;2023-06-22T11:09:45;29.10;;;20.35;;
38053;SDS011;23859;50.672;7.164;2023-06-22T11:12:11;34.75;;;22.70;;
38053;SDS011;23859;50.672;7.164;2023-06-22T11:14:38;36.75;;;23.48;;
38053;SDS011;23859;50.672;7.164;2023-06-22T11:17:04;33.38;;;23.38;;
38053;SDS011;23859;50.672;7.164;2023-06-22T11:19:30;36.20;;;23.83;;
38053;SDS011;23859;50.672;7.164;2023-06-22T11:21:56;33.97;;;24.38;;
38053;SDS011;23859;50.672;7.164;2023-06-22T11:24:22;36.90;;;24.98;;
38053;SDS011;23859;50.672;7.164;2023-06-22T11:26:49;36.15;;;26.40;;
38053;SDS011;23859;50.672;7.164;2023-06-22T11:29:15;42.42;;;25.92;;
38053;SDS011;23859;50.672;7.164;2023-06-22T11:31:41;43.78;;;26.40;;
38053;SDS011;23859;50.672;7.164;2023-06-22T11:34:08;41.17;;;27.55;;
38053;SDS011;23859;50.672;7.164;2023-06-22T11:36:34;35.75;;;25.10;;
38053;SDS011;23859;50.672;7.164;2023-06-22T11:39:00;30.98;;;21.45;;
38053;SDS011;23859;50.672;7.164;2023-06-22T11:41:27;27.50;;;21.17;;
38053;SDS011;23859;50.672;7.164;2023-06-22T11:43:53;30.27;;;20.40;;
38053;SDS011;23859;50.672;7.164;2023-06-22T11:46:19;25.27;;;18.00;;
38053;SDS011;23859;50.672;7.164;2023-06-22T11:48:45;26.50;;;18.17;;
38053;SDS011;23859;50.672;7.164;2023-06-22T11:51:11;24.77;;;18.08;;
38053;SDS011;23859;50.672;7.164;2023-06-22T11:53:37;25.92;;;17.33;;
38053;SDS011;23859;50.672;7.164;2023-06-22T11:56:03;21.42;;;15.85;;
38053;SDS011;23859;50.672;7.164;2023-06-22T11:58:30;19.48;;;15.35;;
38053;SDS011;23859;50.672;7.164;2023-06-22T12:00:56;21.20;;;16.55;;
38053;SDS011;23859;50.672;7.164;2023-06-22T12:03:22;24.92;;;17.88;;
38053;SDS011;23859;50.672;7.164;2023-06-22T12:05:49;24.58;;;18.65;;
38053;SDS011;23859;50.672;7.164;2023-06-22T12:08:17;26.60;;;19.27;;
38053;SDS011;23859;50.672;7.164;2023-06-22T12:10:43;20.50;;;15.48;;
38053;SDS011;23859;50.672;7.164;2023-06-22T12:13:09;23.05;;;16.60;;
38053;SDS011;23859;50.672;7.164;2023-06-22T12:15:35;20.25;;;15.45;;
38053;SDS011;23859;50.672;7.164;2023-06-22T12:18:01;16.92;;;13.52;;
38053;SDS011;23859;50.672;7.164;2023-06-22T12:20:27;17.98;;;12.93;;
38053;SDS011;23859;50.672;7.164;2023-06-22T12:22:54;18.65;;;14.38;;
38053;SDS011;23859;50.672;7.164;2023-06-22T12:25:21;17.35;;;13.38;;
38053;SDS011;23859;50.672;7.164;2023-06-22T12:27:47;20.33;;;14.25;;
38053;SDS011;23859;50.672;7.164;2023-06-22T12:30:14;20.80;;;13.75;;
38053;SDS011;23859;50.672;7.164;2023-06-22T12:32:40;16.23;;;13.40;;
38053;SDS011;23859;50.672;7.164;2023-06-22T12:35:06;17.77;;;13.60;;
38053;SDS011;23859;50.672;7.164;2023-06-22T12:37:38;15.80;;;12.48;;
38053;SDS011;23859;50.672;7.164;2023-06-22T12:40:07;14.77;;;12.40;;
38053;SDS011;23859;50.672;7.164;2023-06-22T12:42:34;18.17;;;11.48;;
38053;SDS011;23859;50.672;7.164;2023-06-22T12:45:00;13.70;;;10.50;;
38053;SDS011;23859;50.672;7.164;2023-06-22T12:47:27;12.25;;;10.98;;
38053;SDS011;23859;50.672;7.164;2023-06-22T12:49:53;13.05;;;10.77;;
38053;SDS011;23859;50.672;7.164;2023-06-22T12:52:19;15.70;;;11.50;;
38053;SDS011;23859;50.672;7.164;2023-06-22T12:54:45;13.80;;;10.73;;
38053;SDS011;23859;50.672;7.164;2023-06-22T12:57:11;13.35;;;10.73;;
38053;SDS011;23859;50.672;7.164;2023-06-22T12:59:37;14.25;;;10.82;;
38053;SDS011;23859;50.672;7.164;2023-06-22T13:02:03;15.35;;;11.75;;
38053;SDS011;23859;50.672;7.164;2023-06-22T13:04:29;14.95;;;11.88;;
38053;SDS011;23859;50.672;7.164;2023-06-22T13:06:55;14.45;;;11.80;;
38053;SDS011;23859;50.672;7.164;2023-06-22T13:09:21;17.95;;;12.98;;
38053;SDS011;23859;50.672;7.164;2023-06-22T13:11:47;18.77;;;12.20;;
38053;SDS011;23859;50.672;7.164;2023-06-22T13:14:13;20.42;;;12.07;;
38053;SDS011;23859;50.672;7.164;2023-06-22T13:16:41;16.38;;;12.48;;
38053;SDS011;23859;50.672;7.164;2023-06-22T13:19:07;14.35;;;11.18;;
38053;SDS011;23859;50.672;7.164;2023-06-22T13:21:33;16.50;;;11.73;;
38053;SDS011;23859;50.672;7.164;2023-06-22T13:23:59;14.40;;;11.90;;
38053;SDS011;23859;50.672;7.164;2023-06-22T13:26:26;14.65;;;11.57;;
38053;SDS011;23859;50.672;7.164;2023-06-22T13:28:53;13.57;;;11.68;;
38053;SDS011;23859;50.672;7.164;2023-06-22T13:31:19;13.75;;;10.77;;
38053;SDS011;23859;50.672;7.164;2023-06-22T13:33:46;14.93;;;11.30;;
38053;SDS011;23859;50.672;7.164;2023-06-22T13:36:13;15.68;;;10.63;;
38053;SDS011;23859;50.672;7.164;2023-06-22T13:38:39;14.27;;;10.20;;
38053;SDS011;23859;50.672;7.164;2023-06-22T13:41:05;11.10;;;9.98;;
38053;SDS011;23859;50.672;7.164;2023-06-22T13:43:32;11.55;;;8.82;;
38053;SDS011;23859;50.672;7.164;2023-06-22T13:45:58;12.55;;;9.00;;
38053;SDS011;23859;50.672;7.164;2023-06-22T13:48:24;11.10;;;8.38;;
38053;SDS011;23859;50.672;7.164;2023-06-22T13:50:51;10.48;;;7.93;;
38053;SDS011;23859;50.672;7.164;2023-06-22T13:53:17;11.30;;;8.60;;
38053;SDS011;23859;50.672;7.164;2023-06-22T13:55:43;12.23;;;7.55;;
38053;SDS011;23859;50.672;7.164;2023-06-22T13:58:09;8.38;;;7.47;;
38053;SDS011;23859;50.672;7.164;2023-06-22T14:00:35;9.85;;;7.82;;
38053;SDS011;23859;50.672;7.164;2023-06-22T14:03:02;7.80;;;6.60;;
38053;SDS011;23859;50.672;7.164;2023-06-22T14:05:28;11.10;;;6.93;;
38053;SDS011;23859;50.672;7.164;2023-06-22T14:07:54;8.10;;;6.90;;
38053;SDS011;23859;50.672;7.164;2023-06-22T14:10:20;8.27;;;6.00;;
38053;SDS011;23859;50.672;7.164;2023-06-22T14:12:46;8.50;;;6.95;;
38053;SDS011;23859;50.672;7.164;2023-06-22T14:15:12;7.43;;;6.18;;
38053;SDS011;23859;50.672;7.164;2023-06-22T14:17:38;7.35;;;6.03;;
38053;SDS011;23859;50.672;7.164;2023-06-22T14:20:05;10.25;;;6.75;;
38053;SDS011;23859;50.672;7.164;2023-06-22T14:22:33;8.75;;;6.10;;
38053;SDS011;23859;50.672;7.164;2023-06-22T14:25:00;7.95;;;6.43;;
38053;SDS011;23859;50.672;7.164;2023-06-22T14:27:27;11.88;;;6.93;;
38053;SDS011;23859;50.672;7.164;2023-06-22T14:29:53;14.63;;;8.02;;
38053;SDS011;23859;50.672;7.164;2023-06-22T14:32:19;15.20;;;8.90;;
38053;SDS011;23859;50.672;7.164;2023-06-22T14:34:45;19.08;;;10.20;;
38053;SDS011;23859;50.672;7.164;2023-06-22T14:37:11;21.05;;;10.10;;
38053;SDS011;23859;50.672;7.164;2023-06-22T14:39:40;21.30;;;10.88;;